createdAt,value
2023-02-27T00:02:05.023Z,11.63
2023-02-27T00:04:31.891Z,11.75
2023-02-27T00:06:58.825Z,10.27
2023-02-27T00:09:25.815Z,14.52
2023-02-27T00:11:53.185Z,12.93
2023-02-27T00:14:20.346Z,13.27
2023-02-27T00:16:47.894Z,11.63
2023-02-27T00:19:15.838Z,13.65
2023-02-27T00:21:44.668Z,10.88
2023-02-27T00:24:12.198Z,12.10
2023-02-27T00:26:40.212Z,11.77
2023-02-27T00:29:08.524Z,12.75
2023-02-27T00:31:35.852Z,11.73
2023-02-27T00:34:04.880Z,9.32
2023-02-27T00:36:32.542Z,9.80
2023-02-27T00:38:59.959Z,13.05
2023-02-27T00:41:28.092Z,9.88
2023-02-27T00:43:55.509Z,10.43
2023-02-27T00:46:23.069Z,14.35
2023-02-27T00:48:50.829Z,13.75
2023-02-27T00:51:20.609Z,10.95
2023-02-27T00:53:47.748Z,8.80
2023-02-27T00:56:15.914Z,8.80
2023-02-27T00:58:44.030Z,9.80
2023-02-27T01:01:11.117Z,10.35
2023-02-27T01:03:39.252Z,10.10
2023-02-27T01:06:07.114Z,12.63
2023-02-27T01:08:34.419Z,13.80
2023-02-27T01:11:01.359Z,12.93
2023-02-27T01:13:28.618Z,14.45
2023-02-27T01:15:55.982Z,18.05
2023-02-27T01:18:26.114Z,11.35
2023-02-27T01:20:55.687Z,17.85
2023-02-27T01:23:23.784Z,15.65
2023-02-27T01:25:50.973Z,12.60
2023-02-27T01:28:19.771Z,11.88
2023-02-27T01:30:47.707Z,13.40
2023-02-27T01:33:15.322Z,16.80
2023-02-27T01:35:42.797Z,17.67
2023-02-27T01:38:10.550Z,11.07
2023-02-27T01:40:39.173Z,13.65
2023-02-27T01:43:07.304Z,11.77
2023-02-27T01:45:42.232Z,14.52
2023-02-27T01:48:18.980Z,13.52
2023-02-27T01:51:11.938Z,16.00
2023-02-27T01:53:41.742Z,11.00
2023-02-27T01:56:14.454Z,14.32
2023-02-27T01:58:43.303Z,13.05
2023-02-27T02:01:11.328Z,14.23
2023-02-27T02:03:52.479Z,12.20
2023-02-27T02:06:21.482Z,16.63
2023-02-27T02:08:53.018Z,15.45
2023-02-27T02:11:22.426Z,11.93
2023-02-27T02:13:53.968Z,11.77
2023-02-27T02:16:30.603Z,13.73
2023-02-27T02:19:00.504Z,9.10
2023-02-27T02:21:53.179Z,10.85
2023-02-27T02:25:08.682Z,11.73
2023-02-27T02:27:54.584Z,14.32
2023-02-27T02:30:44.003Z,10.85
2023-02-27T02:33:10.918Z,12.98
2023-02-27T02:36:06.395Z,13.65
2023-02-27T02:41:50.048Z,13.80
2023-02-27T02:44:39.841Z,11.52
2023-02-27T02:47:26.562Z,9.25
2023-02-27T02:50:08.231Z,10.93
2023-02-27T02:52:48.023Z,12.80
2023-02-27T02:55:26.557Z,10.02
2023-02-27T02:58:16.093Z,9.60
2023-02-27T03:01:00.113Z,11.15
2023-02-27T03:03:38.686Z,11.18
2023-02-27T03:06:24.481Z,11.27
2023-02-27T03:08:58.617Z,15.75
2023-02-27T03:11:30.952Z,17.92
2023-02-27T03:14:05.821Z,12.88
2023-02-27T03:16:44.453Z,12.57
2023-02-27T03:19:14.513Z,13.23
2023-02-27T03:22:11.753Z,13.48
2023-02-27T03:24:53.362Z,10.10
2023-02-27T03:27:22.398Z,10.20
2023-02-27T03:30:03.803Z,10.75
2023-02-27T03:33:07.122Z,12.50
2023-02-27T03:35:58.409Z,9.55
2023-02-27T03:38:33.160Z,13.32
2023-02-27T03:41:25.353Z,9.57
2023-02-27T03:44:11.419Z,10.93
2023-02-27T03:46:40.274Z,10.05
2023-02-27T03:49:08.614Z,11.75
2023-02-27T03:51:37.600Z,7.72
2023-02-27T03:54:35.910Z,9.43
2023-02-27T03:57:08.658Z,8.55
2023-02-27T03:59:38.046Z,9.82
2023-02-27T04:02:06.394Z,11.15
2023-02-27T04:04:35.706Z,15.70
2023-02-27T04:07:29.789Z,10.93
2023-02-27T04:10:35.301Z,10.57
2023-02-27T04:13:21.918Z,9.48
2023-02-27T04:16:17.624Z,9.82
2023-02-27T04:18:59.873Z,9.25
2023-02-27T04:21:45.564Z,12.00
2023-02-27T04:24:35.249Z,9.40
2023-02-27T04:27:36.932Z,9.25
2023-02-27T04:30:38.242Z,9.95
2023-02-27T04:33:19.005Z,9.25
2023-02-27T04:35:59.935Z,9.50
2023-02-27T04:38:50.181Z,8.45
2023-02-27T04:41:26.241Z,9.10
2023-02-27T04:43:55.121Z,14.25
2023-02-27T04:46:26.805Z,10.50
2023-02-27T04:49:16.447Z,6.82
2023-02-27T04:51:52.838Z,9.68
2023-02-27T04:54:27.833Z,8.13
2023-02-27T04:56:59.314Z,11.07
2023-02-27T04:59:30.954Z,9.77
2023-02-27T05:02:14.466Z,11.27
2023-02-27T05:04:43.776Z,8.75
2023-02-27T05:07:17.583Z,11.68
2023-02-27T05:09:47.860Z,6.50
2023-02-27T05:12:33.687Z,10.43
2023-02-27T05:15:07.183Z,15.18
2023-02-27T05:17:37.786Z,13.05
2023-02-27T05:20:09.176Z,12.75
2023-02-27T05:23:04.980Z,10.98
2023-02-27T05:25:48.642Z,9.93
2023-02-27T05:28:30.448Z,8.13
2023-02-27T05:31:32.007Z,10.30
2023-02-27T05:33:59.065Z,11.75
2023-02-27T05:36:34.406Z,9.25
2023-02-27T05:39:05.794Z,10.38
2023-02-27T05:41:54.218Z,12.20
2023-02-27T05:44:27.231Z,11.63
2023-02-27T05:46:59.648Z,11.63
2023-02-27T05:49:47.367Z,12.30
2023-02-27T05:52:19.068Z,11.55
2023-02-27T05:55:04.360Z,13.35
2023-02-27T05:57:38.867Z,10.90
2023-02-27T06:00:33.777Z,16.95
2023-02-27T06:03:00.938Z,16.75
2023-02-27T06:05:28.930Z,10.48
2023-02-27T06:07:55.954Z,13.68
2023-02-27T06:10:23.262Z,14.13
2023-02-27T06:12:50.255Z,13.95
2023-02-27T06:15:18.805Z,13.50
2023-02-27T06:17:45.833Z,15.00
2023-02-27T06:20:13.640Z,15.82
2023-02-27T06:22:40.902Z,12.73
2023-02-27T06:25:08.070Z,12.77
2023-02-27T06:27:34.988Z,14.52
2023-02-27T06:30:02.025Z,16.75
2023-02-27T06:32:29.037Z,14.35
2023-02-27T06:34:56.193Z,11.38
2023-02-27T06:37:23.694Z,14.48
2023-02-27T06:39:50.641Z,13.52
2023-02-27T06:42:18.572Z,26.30
2023-02-27T06:44:45.475Z,13.77
2023-02-27T06:47:12.359Z,18.40
2023-02-27T06:49:39.354Z,14.55
2023-02-27T06:52:06.273Z,17.13
2023-02-27T06:54:34.043Z,16.48
2023-02-27T06:57:01.048Z,19.92
2023-02-27T06:59:27.927Z,15.57
2023-02-27T07:01:55.241Z,28.15
2023-02-27T07:04:22.548Z,28.73
2023-02-27T07:07:34.046Z,24.80
2023-02-27T07:09:37.308Z,25.23
2023-02-27T07:12:05.233Z,24.48
2023-02-27T07:14:32.568Z,26.25
2023-02-27T07:17:03.375Z,31.65
2023-02-27T07:19:32.437Z,20.90
2023-02-27T07:21:59.741Z,16.17
2023-02-27T07:24:26.824Z,15.48
2023-02-27T07:26:54.110Z,13.30
2023-02-27T07:29:20.987Z,23.48
2023-02-27T07:31:48.378Z,17.10
2023-02-27T07:34:15.719Z,17.52
2023-02-27T07:36:43.499Z,17.75
2023-02-27T07:39:12.939Z,18.30
2023-02-27T07:41:40.429Z,18.92
2023-02-27T07:44:08.638Z,20.58
2023-02-27T07:46:36.434Z,17.70
2023-02-27T07:49:03.712Z,15.30
2023-02-27T07:51:30.732Z,13.70
2023-02-27T07:53:58.667Z,14.77
2023-02-27T07:56:28.279Z,12.95
2023-02-27T07:58:55.317Z,12.38
2023-02-27T08:01:22.323Z,15.85
2023-02-27T08:03:49.263Z,14.80
2023-02-27T08:06:16.450Z,10.38
2023-02-27T08:08:43.433Z,13.20
2023-02-27T08:11:10.993Z,9.93
2023-02-27T08:16:25.419Z,14.20
2023-02-27T08:18:52.733Z,13.95
2023-02-27T08:21:19.729Z,11.20
2023-02-27T08:23:46.738Z,13.30
2023-02-27T08:26:13.975Z,17.17
2023-02-27T08:28:41.126Z,10.43
2023-02-27T08:31:08.171Z,10.25
2023-02-27T08:33:35.634Z,11.13
2023-02-27T08:36:02.812Z,9.82
2023-02-27T08:38:29.874Z,10.32
2023-02-27T08:40:56.861Z,12.75
2023-02-27T08:43:24.050Z,11.52
2023-02-27T08:45:51.473Z,8.23
2023-02-27T08:48:18.842Z,15.43
2023-02-27T08:50:47.072Z,7.63
2023-02-27T08:53:14.519Z,9.38
2023-02-27T08:55:42.742Z,9.18
2023-02-27T08:58:10.410Z,7.53
2023-02-27T09:00:37.478Z,11.73
2023-02-27T09:03:04.798Z,10.15
2023-02-27T09:05:35.352Z,9.13
2023-02-27T09:08:03.170Z,7.15
2023-02-27T09:10:30.816Z,10.75
2023-02-27T09:12:58.070Z,10.77
2023-02-27T09:15:25.739Z,9.43
2023-02-27T09:17:56.470Z,11.35
2023-02-27T09:20:23.661Z,7.50
2023-02-27T09:22:51.778Z,6.25
2023-02-27T09:25:18.767Z,10.02
2023-02-27T09:27:46.359Z,9.27
2023-02-27T09:30:13.572Z,11.30
2023-02-27T09:32:40.495Z,9.57
2023-02-27T09:35:09.465Z,9.68
2023-02-27T09:37:36.577Z,10.80
2023-02-27T09:40:06.201Z,10.02
2023-02-27T09:42:45.563Z,10.90
2023-02-27T09:45:30.836Z,13.73
2023-02-27T09:48:24.157Z,8.40
2023-02-27T09:50:52.695Z,7.70
2023-02-27T09:53:41.453Z,9.57
2023-02-27T09:56:41.196Z,8.90
2023-02-27T09:59:36.345Z,9.05
2023-02-27T10:02:21.709Z,8.40
2023-02-27T10:05:18.814Z,9.68
2023-02-27T10:08:01.124Z,6.40
2023-02-27T10:11:01.239Z,8.07
2023-02-27T10:13:49.772Z,10.75
2023-02-27T10:16:20.947Z,10.55
2023-02-27T10:19:00.393Z,8.65
2023-02-27T10:21:51.628Z,13.45
2023-02-27T10:24:26.628Z,12.07
2023-02-27T10:29:31.558Z,11.32
2023-02-27T10:32:26.864Z,13.82
2023-02-27T10:35:27.747Z,13.35
2023-02-27T10:38:11.361Z,8.23
2023-02-27T10:40:41.299Z,11.25
2023-02-27T10:43:08.584Z,11.40
2023-02-27T10:45:37.034Z,10.27
2023-02-27T10:48:06.261Z,8.75
2023-02-27T10:50:36.868Z,8.60
2023-02-27T10:53:17.116Z,9.52
2023-02-27T10:55:47.692Z,6.90
2023-02-27T10:58:20.395Z,12.32
2023-02-27T11:00:56.148Z,9.68
2023-02-27T11:03:29.739Z,11.82
2023-02-27T11:06:06.785Z,12.07
2023-02-27T11:08:35.254Z,13.43
2023-02-27T11:11:11.982Z,7.22
2023-02-27T11:13:44.887Z,11.18
2023-02-27T11:16:13.867Z,12.00
2023-02-27T11:18:46.167Z,12.00
2023-02-27T11:21:24.158Z,8.70
2023-02-27T11:24:03.985Z,8.27
2023-02-27T11:26:40.769Z,5.55
2023-02-27T11:29:08.183Z,8.65
2023-02-27T11:31:37.820Z,10.10
2023-02-27T11:34:05.751Z,9.43
2023-02-27T11:36:45.466Z,7.25
2023-02-27T11:39:37.780Z,9.30
2023-02-27T11:42:26.129Z,11.48
2023-02-27T11:45:04.777Z,7.95
2023-02-27T11:47:40.015Z,8.25
2023-02-27T11:50:19.424Z,8.63
2023-02-27T11:53:04.460Z,7.97
2023-02-27T11:55:33.059Z,10.88
2023-02-27T11:58:09.667Z,8.68
2023-02-27T12:00:49.279Z,9.77
2023-02-27T12:03:31.066Z,3.95
2023-02-27T12:06:01.021Z,6.38
2023-02-27T12:08:55.056Z,6.05
2023-02-27T12:11:31.421Z,9.18
2023-02-27T12:14:23.904Z,7.38
2023-02-27T12:16:55.498Z,6.85
2023-02-27T12:19:34.295Z,7.53
2023-02-27T12:22:37.613Z,7.90
2023-02-27T12:25:46.735Z,7.00
2023-02-27T12:28:25.910Z,13.98
2023-02-27T12:31:32.666Z,11.38
2023-02-27T12:34:22.954Z,9.52
2023-02-27T12:36:52.071Z,6.85
2023-02-27T12:39:24.589Z,8.45
2023-02-27T12:42:19.773Z,6.70
2023-02-27T12:44:55.596Z,9.32
2023-02-27T12:47:53.549Z,10.00
2023-02-27T12:50:23.550Z,5.55
2023-02-27T12:53:10.371Z,9.13
2023-02-27T12:55:53.120Z,9.43
2023-02-27T12:58:44.879Z,7.03
2023-02-27T13:01:39.563Z,4.00
2023-02-27T13:04:42.450Z,7.53
2023-02-27T13:07:28.997Z,5.75
2023-02-27T13:10:02.114Z,6.40
2023-02-27T13:12:44.271Z,5.97
2023-02-27T13:15:28.315Z,5.20
2023-02-27T13:18:05.315Z,7.30
2023-02-27T13:20:50.603Z,5.78
2023-02-27T13:23:29.336Z,5.70
2023-02-27T13:25:59.161Z,5.15
2023-02-27T13:28:29.334Z,6.90
2023-02-27T13:31:52.922Z,4.68
2023-02-27T13:34:40.939Z,8.70
2023-02-27T13:37:09.845Z,5.82
2023-02-27T13:39:47.021Z,6.55
2023-02-27T13:42:26.648Z,5.18
2023-02-27T13:45:27.044Z,7.45
2023-02-27T13:47:55.527Z,3.83
2023-02-27T13:50:27.110Z,7.18
2023-02-27T13:52:54.392Z,6.45
2023-02-27T13:55:35.393Z,5.13
2023-02-27T13:58:04.128Z,5.88
2023-02-27T14:00:38.187Z,3.53
2023-02-27T14:03:35.226Z,4.85
2023-02-27T14:06:06.501Z,4.13
2023-02-27T14:08:47.624Z,6.85
2023-02-27T14:11:28.164Z,9.57
2023-02-27T14:13:57.204Z,5.10
2023-02-27T14:16:40.087Z,5.30
2023-02-27T14:19:16.751Z,4.45
2023-02-27T14:21:57.640Z,5.68
2023-02-27T14:24:36.322Z,4.70
2023-02-27T14:27:06.146Z,8.82
2023-02-27T14:29:35.253Z,6.60
2023-02-27T14:32:09.498Z,7.13
2023-02-27T14:34:38.255Z,4.85
2023-02-27T14:37:10.379Z,8.13
2023-02-27T14:39:40.312Z,4.75
2023-02-27T14:42:19.445Z,6.43
2023-02-27T14:44:48.208Z,5.63
2023-02-27T14:47:38.680Z,5.80
2023-02-27T14:50:29.028Z,5.03
2023-02-27T14:52:56.090Z,6.20
2023-02-27T14:55:35.717Z,7.80
2023-02-27T14:58:21.838Z,8.88
2023-02-27T15:01:03.884Z,9.82
2023-02-27T15:03:45.139Z,10.63
2023-02-27T15:06:21.790Z,8.60
2023-02-27T15:08:54.295Z,5.82
2023-02-27T15:11:23.782Z,3.95
2023-02-27T15:14:03.134Z,7.18
2023-02-27T15:16:36.119Z,5.95
2023-02-27T15:19:17.818Z,3.13
2023-02-27T15:21:51.703Z,6.13
2023-02-27T15:24:23.883Z,3.47
2023-02-27T15:27:01.714Z,4.63
2023-02-27T15:29:42.086Z,4.90
2023-02-27T15:32:36.725Z,5.28
2023-02-27T15:35:17.700Z,6.82
2023-02-27T15:37:59.485Z,3.75
2023-02-27T15:40:29.009Z,4.05
2023-02-27T15:42:57.141Z,7.43
2023-02-27T15:45:36.008Z,5.95
2023-02-27T15:48:04.734Z,4.18
2023-02-27T15:50:38.382Z,5.43
2023-02-27T15:53:08.229Z,11.60
2023-02-27T15:55:41.028Z,13.57
2023-02-27T15:58:29.753Z,3.75
2023-02-27T16:01:17.404Z,4.90
2023-02-27T16:03:50.090Z,5.53
2023-02-27T16:06:21.082Z,4.43
2023-02-27T16:08:53.053Z,4.68
2023-02-27T16:11:25.850Z,3.40
2023-02-27T16:13:55.094Z,4.32
2023-02-27T16:16:24.089Z,4.25
2023-02-27T16:18:56.255Z,2.50
2023-02-27T16:21:28.371Z,4.35
2023-02-27T16:24:15.368Z,3.08
2023-02-27T16:26:42.539Z,3.58
2023-02-27T16:29:24.484Z,3.53
2023-02-27T16:31:58.696Z,5.18
2023-02-27T16:34:44.766Z,4.70
2023-02-27T16:37:35.959Z,5.50
2023-02-27T16:40:14.405Z,6.07
2023-02-27T16:42:42.378Z,7.05
2023-02-27T16:45:21.349Z,5.47
2023-02-27T16:47:54.516Z,7.45
2023-02-27T16:50:23.937Z,10.05
2023-02-27T16:52:51.120Z,6.63
2023-02-27T16:55:18.536Z,4.82
2023-02-27T16:57:45.636Z,5.78
2023-02-27T17:00:18.215Z,6.25
2023-02-27T17:02:46.912Z,7.25
2023-02-27T17:05:15.363Z,7.60
2023-02-27T17:07:43.421Z,8.02
2023-02-27T17:10:16.201Z,7.13
2023-02-27T17:12:44.192Z,6.85
2023-02-27T17:15:11.507Z,7.50
2023-02-27T17:17:38.975Z,7.47
2023-02-27T17:20:10.574Z,6.60
2023-02-27T17:22:39.838Z,7.38
2023-02-27T17:25:08.678Z,5.90
2023-02-27T17:27:35.896Z,7.38
2023-02-27T17:30:03.851Z,7.45
2023-02-27T17:32:31.250Z,11.13
2023-02-27T17:34:59.342Z,10.32
2023-02-27T17:37:27.294Z,12.82
2023-02-27T17:39:55.064Z,11.35
2023-02-27T17:42:25.728Z,9.85
2023-02-27T17:44:55.767Z,9.35
2023-02-27T17:47:23.026Z,8.15
2023-02-27T17:49:50.114Z,9.57
2023-02-27T17:52:17.975Z,9.75
2023-02-27T17:54:45.227Z,16.65
2023-02-27T17:57:13.497Z,5.03
2023-02-27T17:59:41.113Z,9.00
2023-02-27T18:02:11.448Z,8.50
2023-02-27T18:04:38.592Z,7.75
2023-02-27T18:07:06.093Z,8.57
2023-02-27T18:09:33.297Z,7.55
2023-02-27T18:12:00.320Z,6.43
2023-02-27T18:14:27.318Z,7.00
2023-02-27T18:16:54.456Z,11.35
2023-02-27T18:19:23.245Z,8.63
2023-02-27T18:21:50.456Z,8.85
2023-02-27T18:24:17.516Z,14.43
2023-02-27T18:26:45.377Z,12.70
2023-02-27T18:29:14.119Z,9.25
2023-02-27T18:31:44.735Z,7.13
2023-02-27T18:34:12.798Z,9.73
2023-02-27T18:36:39.927Z,9.10
2023-02-27T18:39:07.831Z,10.50
2023-02-27T18:41:35.725Z,12.02
2023-02-27T18:44:03.968Z,11.52
2023-02-27T18:46:32.577Z,8.95
2023-02-27T18:48:59.990Z,7.60
2023-02-27T18:51:27.634Z,7.30
2023-02-27T18:53:54.808Z,8.55
2023-02-27T18:56:25.863Z,9.63
2023-02-27T18:58:54.076Z,10.48
2023-02-27T19:01:28.547Z,7.53
2023-02-27T19:04:00.659Z,8.90
2023-02-27T19:06:28.504Z,7.20
2023-02-27T19:08:57.863Z,8.15
2023-02-27T19:11:36.201Z,10.60
2023-02-27T19:14:05.937Z,12.52
2023-02-27T19:16:33.693Z,11.30
2023-02-27T19:19:02.256Z,11.13
2023-02-27T19:21:29.338Z,10.48
2023-02-27T19:23:56.510Z,10.40
2023-02-27T19:26:24.632Z,11.93
2023-02-27T19:28:53.939Z,8.15
2023-02-27T19:31:23.841Z,11.02
2023-02-27T19:33:51.598Z,15.80
2023-02-27T19:36:21.161Z,11.52
2023-02-27T19:38:48.896Z,11.52
2023-02-27T19:41:17.248Z,12.88
2023-02-27T19:43:44.820Z,9.30
2023-02-27T19:46:21.105Z,15.77
2023-02-27T19:48:48.342Z,15.73
2023-02-27T19:51:16.379Z,12.25
2023-02-27T19:53:51.240Z,13.77
2023-02-27T19:56:23.345Z,12.57
2023-02-27T19:58:51.094Z,13.25
2023-02-27T20:01:26.050Z,12.23
2023-02-27T20:06:23.925Z,16.92
2023-02-27T20:08:53.106Z,16.17
2023-02-27T20:11:22.162Z,11.70
2023-02-27T20:13:51.642Z,15.18
2023-02-27T20:16:22.534Z,14.75
2023-02-27T20:18:50.512Z,12.77
2023-02-27T20:21:23.045Z,11.27
2023-02-27T20:23:51.831Z,12.50
2023-02-27T20:26:27.603Z,18.67
2023-02-27T20:28:58.564Z,12.60
2023-02-27T20:31:28.919Z,13.70
2023-02-27T20:33:57.680Z,12.52
2023-02-27T20:36:24.826Z,16.70
2023-02-27T20:38:52.035Z,13.27
2023-02-27T20:41:22.414Z,12.95
2023-02-27T20:43:50.694Z,10.93
2023-02-27T20:46:24.037Z,11.48
2023-02-27T20:48:52.172Z,11.32
2023-02-27T20:51:22.456Z,14.98
2023-02-27T20:53:52.063Z,17.50
2023-02-27T20:56:25.009Z,16.60
2023-02-27T20:58:52.287Z,16.65
2023-02-27T21:01:20.565Z,16.23
2023-02-27T21:03:50.794Z,14.27
2023-02-27T21:06:19.276Z,16.15
2023-02-27T21:08:52.904Z,13.85
2023-02-27T21:11:31.314Z,13.63
2023-02-27T21:14:02.692Z,13.48
2023-02-27T21:16:30.093Z,15.90
2023-02-27T21:18:57.515Z,13.02
2023-02-27T21:21:30.980Z,16.55
2023-02-27T21:23:59.392Z,14.98
2023-02-27T21:26:38.009Z,16.65
2023-02-27T21:29:07.183Z,13.55
2023-02-27T21:31:36.054Z,14.10
2023-02-27T21:34:10.512Z,15.88
2023-02-27T21:36:44.260Z,9.55
2023-02-27T21:39:26.524Z,15.88
2023-02-27T21:41:53.918Z,12.70
2023-02-27T21:44:26.794Z,14.60
2023-02-27T21:46:54.822Z,13.57
2023-02-27T21:49:24.420Z,12.77
2023-02-27T21:51:52.511Z,12.00
2023-02-27T21:54:20.970Z,12.93
2023-02-27T21:56:49.523Z,12.77
2023-02-27T21:59:18.090Z,14.60
2023-02-27T22:01:49.024Z,12.40
2023-02-27T22:04:18.812Z,13.85
2023-02-27T22:06:46.402Z,11.48
2023-02-27T22:09:13.596Z,13.82
2023-02-27T22:11:42.684Z,12.20
2023-02-27T22:14:11.887Z,13.13
2023-02-27T22:16:40.953Z,10.10
2023-02-27T22:19:10.889Z,13.90
2023-02-27T22:21:39.801Z,14.60
2023-02-27T22:24:07.836Z,12.65
2023-02-27T22:26:37.365Z,14.20
2023-02-27T22:29:06.705Z,15.70
2023-02-27T22:31:36.693Z,15.43
2023-02-27T22:34:21.211Z,15.50
2023-02-27T22:36:52.370Z,13.65
2023-02-27T22:39:20.728Z,13.07
2023-02-27T22:41:48.438Z,14.80
2023-02-27T22:44:16.625Z,18.10
2023-02-27T22:46:47.305Z,17.75
2023-02-27T22:49:21.442Z,16.52
2023-02-27T22:51:51.256Z,18.77
2023-02-27T22:54:20.804Z,14.52
2023-02-27T22:56:51.428Z,15.07
2023-02-27T22:59:19.442Z,13.27
2023-02-27T23:01:48.334Z,16.83
2023-02-27T23:04:17.435Z,14.55
2023-02-27T23:06:45.530Z,11.77
2023-02-27T23:09:19.604Z,14.57
2023-02-27T23:11:47.697Z,15.25
2023-02-27T23:14:16.303Z,13.20
2023-02-27T23:16:47.712Z,16.42
2023-02-27T23:19:17.896Z,12.90
2023-02-27T23:21:45.838Z,11.85
2023-02-27T23:24:17.149Z,13.65
2023-02-27T23:26:50.112Z,13.52
2023-02-27T23:29:17.962Z,16.92
2023-02-27T23:31:45.741Z,14.90
2023-02-27T23:34:14.122Z,20.10
2023-02-27T23:36:41.857Z,14.80
2023-02-27T23:39:10.881Z,15.40
2023-02-27T23:41:38.556Z,16.02
2023-02-27T23:44:05.975Z,17.23
2023-02-27T23:46:33.650Z,13.65
2023-02-27T23:49:01.689Z,18.50
2023-02-27T23:51:30.616Z,16.05
2023-02-27T23:53:58.946Z,20.15
2023-02-27T23:56:29.730Z,18.05
2023-02-27T23:59:00.285Z,25.02
